Muldon, Mississippi
Current Conditions -  °F | °C
As of 6:55 AM on Sunday 21 Dec 2014 (Local Time) from KM40 Reporting Station
Haze Haze  
Wind Chill: 32°   Ceiling: Unl
Heat Index: 32°   Visibility: 5mi
Dew Point: 25°   Wind: 3mph
Humidity: 75%   Direction: 20°NNE
Pressure: 30.21"   Gusts: NA
Location:  33.8251°N, 88.6185°W
Report Text: KM40 211255Z AUTO 02003KT 5SM HZ CLR 00/M04 A3021 RMK AO2
Loading
Personal Weather Stations






























Interactive Weather Map New forecast layout! Learn more

10-Day Weather Forecast

Advertisements
Track Severe Weather on mobile